createdAt,value
2023-03-26T00:00:41.177Z,1000.49
2023-03-26T00:01:41.176Z,1000.49
2023-03-26T00:02:41.339Z,1000.51
2023-03-26T00:03:41.133Z,1000.49
2023-03-26T00:04:41.130Z,1000.52
2023-03-26T00:05:41.179Z,1000.52
2023-03-26T00:06:41.112Z,1000.54
2023-03-26T00:07:41.097Z,1000.58
2023-03-26T00:08:41.087Z,1000.51
2023-03-26T00:09:41.094Z,1000.53
2023-03-26T00:10:41.059Z,1000.53
2023-03-26T00:11:41.065Z,1000.53
2023-03-26T00:12:41.066Z,1000.57
2023-03-26T00:13:41.027Z,1000.57
2023-03-26T00:14:41.017Z,1000.58
2023-03-26T00:15:41.004Z,1000.59
2023-03-26T00:16:41.027Z,1000.59
2023-03-26T00:17:41.067Z,1000.59
2023-03-26T00:18:40.972Z,1000.58
2023-03-26T00:19:40.982Z,1000.57
2023-03-26T00:20:40.955Z,1000.56
2023-03-26T00:21:40.931Z,1000.64
2023-03-26T00:22:40.924Z,1000.62
2023-03-26T00:23:40.932Z,1000.68
2023-03-26T00:24:40.935Z,1000.66
2023-03-26T00:25:40.890Z,1000.62
2023-03-26T00:26:40.899Z,1000.63
2023-03-26T00:27:40.874Z,1000.69
2023-03-26T00:28:40.881Z,1000.67
2023-03-26T00:29:40.849Z,1000.69
2023-03-26T00:30:40.875Z,1000.71
2023-03-26T00:31:40.827Z,1000.74
2023-03-26T00:32:40.843Z,1000.70
2023-03-26T00:33:40.938Z,1000.79
2023-03-26T00:34:40.789Z,1000.77
2023-03-26T00:35:40.801Z,1000.74
2023-03-26T00:36:40.775Z,1000.73
2023-03-26T00:37:40.757Z,1000.79
2023-03-26T00:38:40.770Z,1000.74
2023-03-26T00:39:40.745Z,1000.80
2023-03-26T00:40:40.729Z,1000.80
2023-03-26T00:41:40.717Z,1000.76
2023-03-26T00:42:40.703Z,1000.77
2023-03-26T00:43:40.695Z,1000.72
2023-03-26T00:44:40.706Z,1000.72
2023-03-26T00:45:40.691Z,1000.72
2023-03-26T00:46:40.944Z,1000.71
2023-03-26T00:47:40.728Z,1000.71
2023-03-26T00:48:45.471Z,1000.68
2023-03-26T00:49:40.661Z,1000.75
2023-03-26T00:50:40.622Z,1000.70
2023-03-26T00:51:40.602Z,1000.73
2023-03-26T00:52:40.595Z,1000.74
2023-03-26T00:53:40.579Z,1000.75
2023-03-26T00:54:40.580Z,1000.70
2023-03-26T00:55:40.586Z,1000.72
2023-03-26T00:56:40.571Z,1000.68
2023-03-26T00:57:40.652Z,1000.62
2023-03-26T00:58:40.546Z,1000.64
2023-03-26T00:59:40.516Z,1000.65
2023-03-26T01:00:40.518Z,1000.69
2023-03-26T01:01:40.558Z,1000.68
2023-03-26T01:02:40.552Z,1000.64
2023-03-26T01:03:40.612Z,1000.69
2023-03-26T01:04:40.649Z,1000.65
2023-03-26T01:05:40.458Z,1000.69
2023-03-26T01:06:40.436Z,1000.66
2023-03-26T01:07:40.440Z,1000.70
2023-03-26T01:08:40.429Z,1000.58
2023-03-26T01:09:40.403Z,1000.54
2023-03-26T01:10:40.390Z,1000.61
2023-03-26T01:11:40.384Z,1000.63
2023-03-26T01:12:40.393Z,1000.59
2023-03-26T01:13:40.357Z,1000.61
2023-03-26T01:14:40.344Z,1000.62
2023-03-26T01:15:40.341Z,1000.57
2023-03-26T01:16:40.324Z,1000.59
2023-03-26T01:17:40.414Z,1000.53
2023-03-26T01:18:40.297Z,1000.52
2023-03-26T01:19:40.283Z,1000.53
2023-03-26T01:20:40.278Z,1000.52
2023-03-26T01:21:40.264Z,1000.51
2023-03-26T01:22:40.271Z,1000.51
2023-03-26T01:23:40.239Z,1000.51
2023-03-26T01:24:40.234Z,1000.49
2023-03-26T01:25:40.252Z,1000.49
2023-03-26T01:26:40.215Z,1000.51
2023-03-26T01:27:40.222Z,1000.54
2023-03-26T01:28:40.185Z,1000.52
2023-03-26T01:29:40.178Z,1000.49
2023-03-26T01:30:40.169Z,1000.49
2023-03-26T01:31:40.148Z,1000.50
2023-03-26T01:32:40.217Z,1000.46
2023-03-26T01:33:40.299Z,1000.49
2023-03-26T01:34:40.115Z,1000.47
2023-03-26T01:35:40.207Z,1000.45
2023-03-26T01:36:40.092Z,1000.45
2023-03-26T01:37:40.086Z,1000.47
2023-03-26T01:38:40.124Z,1000.43
2023-03-26T01:39:40.070Z,1000.46
2023-03-26T01:40:40.058Z,1000.44
2023-03-26T01:41:40.047Z,1000.41
2023-03-26T01:42:40.025Z,1000.44
2023-03-26T01:43:40.011Z,1000.43
2023-03-26T01:44:40.039Z,1000.38
2023-03-26T01:45:40.009Z,1000.36
2023-03-26T01:46:40.041Z,1000.39
2023-03-26T01:47:39.983Z,1000.35
2023-03-26T01:48:39.959Z,1000.38
2023-03-26T01:49:39.962Z,1000.36
2023-03-26T01:50:39.968Z,1000.37
2023-03-26T01:51:39.922Z,1000.34
2023-03-26T01:52:39.906Z,1000.30
2023-03-26T01:53:39.902Z,1000.34
2023-03-26T01:54:39.884Z,1000.29
2023-03-26T01:55:39.882Z,1000.31
2023-03-26T01:56:39.925Z,1000.34
2023-03-26T01:57:39.866Z,1000.25
2023-03-26T01:58:39.840Z,1000.27
2023-03-26T01:59:39.828Z,1000.21
2023-03-26T02:00:39.818Z,1000.18
2023-03-26T02:01:39.953Z,1000.20
2023-03-26T02:02:39.981Z,1000.18
2023-03-26T02:03:39.836Z,1000.14
2023-03-26T02:04:39.782Z,1000.12
2023-03-26T02:05:39.767Z,1000.15
2023-03-26T02:06:39.778Z,1000.11
2023-03-26T02:07:39.748Z,1000.12
2023-03-26T02:08:39.726Z,1000.10
2023-03-26T02:09:39.732Z,1000.11
2023-03-26T02:10:39.755Z,1000.13
2023-03-26T02:11:39.692Z,1000.05
2023-03-26T02:12:39.681Z,1000.02
2023-03-26T02:13:39.669Z,1000.09
2023-03-26T02:14:39.654Z,1000.03
2023-03-26T02:15:39.654Z,1000.02
2023-03-26T02:16:39.676Z,1000.04
2023-03-26T02:17:39.657Z,1000.00
2023-03-26T02:18:39.623Z,999.98
2023-03-26T02:19:39.603Z,999.95
2023-03-26T02:20:39.588Z,999.96
2023-03-26T02:21:39.611Z,999.90
2023-03-26T02:22:39.584Z,999.93
2023-03-26T02:23:39.572Z,999.95
2023-03-26T02:24:39.546Z,999.94
2023-03-26T02:25:39.529Z,999.90
2023-03-26T02:26:39.523Z,999.90
2023-03-26T02:27:39.546Z,999.93
2023-03-26T02:28:39.495Z,999.88
2023-03-26T02:29:39.499Z,999.90
2023-03-26T02:30:39.472Z,999.92
2023-03-26T02:31:39.511Z,999.89
2023-03-26T02:32:39.519Z,999.86
2023-03-26T02:33:39.453Z,999.84
2023-03-26T02:34:39.430Z,999.87
2023-03-26T02:35:39.455Z,999.91
2023-03-26T02:36:39.522Z,999.88
2023-03-26T02:37:39.400Z,999.86
2023-03-26T02:38:39.407Z,999.81
2023-03-26T02:39:39.377Z,999.84
2023-03-26T02:40:39.362Z,999.81
2023-03-26T02:41:39.360Z,999.79
2023-03-26T02:42:39.339Z,999.76
2023-03-26T02:43:39.340Z,999.72
2023-03-26T02:44:39.344Z,999.72
2023-03-26T02:45:39.355Z,999.73
2023-03-26T02:46:39.293Z,999.73
2023-03-26T02:47:39.355Z,999.72
2023-03-26T02:48:39.273Z,999.70
2023-03-26T02:49:39.267Z,999.68
2023-03-26T02:50:39.273Z,999.63
2023-03-26T02:51:39.235Z,999.73
2023-03-26T02:52:39.223Z,999.62
2023-03-26T02:53:39.232Z,999.64
2023-03-26T02:54:39.199Z,999.60
2023-03-26T02:55:39.190Z,999.60
2023-03-26T02:56:39.224Z,999.63
2023-03-26T02:57:39.196Z,999.61
2023-03-26T02:58:39.170Z,999.61
2023-03-26T02:59:39.149Z,999.65
2023-03-26T03:00:39.143Z,999.57
2023-03-26T03:01:39.134Z,999.61
2023-03-26T03:02:39.235Z,999.60
2023-03-26T03:03:39.104Z,999.55
2023-03-26T03:04:39.116Z,999.57
2023-03-26T03:05:39.096Z,999.52
2023-03-26T03:06:39.074Z,999.53
2023-03-26T03:07:39.057Z,999.53
2023-03-26T03:08:39.063Z,999.52
2023-03-26T03:09:39.065Z,999.53
2023-03-26T03:10:39.023Z,999.48
2023-03-26T03:11:39.017Z,999.47
2023-03-26T03:12:39.006Z,999.47
2023-03-26T03:13:39.025Z,999.46
2023-03-26T03:14:38.981Z,999.49
2023-03-26T03:15:38.965Z,999.48
2023-03-26T03:16:38.985Z,999.46
2023-03-26T03:17:38.970Z,999.48
2023-03-26T03:18:38.937Z,999.47
2023-03-26T03:19:38.955Z,999.45
2023-03-26T03:20:38.911Z,999.48
2023-03-26T03:21:38.912Z,999.42
2023-03-26T03:22:38.889Z,999.42
2023-03-26T03:23:38.883Z,999.43
2023-03-26T03:24:38.873Z,999.46
2023-03-26T03:25:38.882Z,999.41
2023-03-26T03:26:38.854Z,999.41
2023-03-26T03:27:38.834Z,999.42
2023-03-26T03:28:38.833Z,999.40
2023-03-26T03:29:38.834Z,999.41
2023-03-26T03:30:38.869Z,999.39
2023-03-26T03:31:38.793Z,999.42
2023-03-26T03:32:38.805Z,999.44
2023-03-26T03:33:38.773Z,999.40
2023-03-26T03:34:38.829Z,999.37
2023-03-26T03:35:38.804Z,999.43
2023-03-26T03:36:38.798Z,999.44
2023-03-26T03:37:38.730Z,999.41
2023-03-26T03:38:38.725Z,999.42
2023-03-26T03:39:38.703Z,999.40
2023-03-26T03:40:38.703Z,999.36
2023-03-26T03:41:38.718Z,999.41
2023-03-26T03:42:38.675Z,999.39
2023-03-26T03:43:38.674Z,999.40
2023-03-26T03:44:38.674Z,999.37
2023-03-26T03:45:38.633Z,999.39
2023-03-26T03:46:38.695Z,999.36
2023-03-26T03:47:38.633Z,999.36
2023-03-26T03:48:38.603Z,999.31
2023-03-26T03:49:38.594Z,999.30
2023-03-26T03:50:38.615Z,999.31
2023-03-26T03:51:38.570Z,999.24
2023-03-26T03:52:38.556Z,999.27
2023-03-26T03:53:38.550Z,999.20
2023-03-26T03:54:38.536Z,999.23
2023-03-26T03:55:38.551Z,999.22
2023-03-26T03:56:38.541Z,999.26
2023-03-26T03:57:38.538Z,999.25
2023-03-26T03:58:38.499Z,999.25
2023-03-26T03:59:38.489Z,999.21
2023-03-26T04:00:38.493Z,999.19
2023-03-26T04:01:38.471Z,999.20
2023-03-26T04:02:38.585Z,999.15
2023-03-26T04:03:38.835Z,999.16
2023-03-26T04:04:38.465Z,999.17
2023-03-26T04:05:38.408Z,999.10
2023-03-26T04:06:38.423Z,999.08
2023-03-26T04:07:38.385Z,999.09
2023-03-26T04:08:38.416Z,999.06
2023-03-26T04:09:38.364Z,999.08
2023-03-26T04:10:38.361Z,999.03
2023-03-26T04:11:38.343Z,999.03
2023-03-26T04:12:38.356Z,999.04
2023-03-26T04:13:38.323Z,999.07
2023-03-26T04:14:38.309Z,999.05
2023-03-26T04:15:38.324Z,999.04
2023-03-26T04:16:38.299Z,999.05
2023-03-26T04:17:38.333Z,999.00
2023-03-26T04:18:38.302Z,999.01
2023-03-26T04:19:38.250Z,999.00
2023-03-26T04:20:38.240Z,999.03
2023-03-26T04:21:38.228Z,999.03
2023-03-26T04:22:38.244Z,999.01
2023-03-26T04:23:38.216Z,998.95
2023-03-26T04:24:38.198Z,999.00
2023-03-26T04:25:38.192Z,998.94
2023-03-26T04:26:38.175Z,998.92
2023-03-26T04:27:38.160Z,998.99
2023-03-26T04:28:38.177Z,998.91
2023-03-26T04:29:38.177Z,998.92
2023-03-26T04:30:38.134Z,998.95
2023-03-26T04:31:38.179Z,998.97
2023-03-26T04:32:38.142Z,998.92
2023-03-26T04:33:38.117Z,998.94
2023-03-26T04:34:38.095Z,998.92
2023-03-26T04:35:38.132Z,998.94
2023-03-26T04:36:38.070Z,998.85
2023-03-26T04:37:38.053Z,998.88
2023-03-26T04:38:38.067Z,998.85
2023-03-26T04:39:38.031Z,998.85
2023-03-26T04:40:38.027Z,998.85
2023-03-26T04:41:38.015Z,998.88
2023-03-26T04:42:38.002Z,998.87
2023-03-26T04:43:37.982Z,998.82
2023-03-26T04:44:37.996Z,998.83
2023-03-26T04:45:37.965Z,998.86
2023-03-26T04:46:38.011Z,998.85
2023-03-26T04:47:37.969Z,998.80
2023-03-26T04:48:37.938Z,998.79
2023-03-26T04:49:37.926Z,998.82
2023-03-26T04:50:37.933Z,998.82
2023-03-26T04:51:37.964Z,998.79
2023-03-26T04:52:37.931Z,998.79
2023-03-26T04:53:37.874Z,998.79
2023-03-26T04:54:37.868Z,998.82
2023-03-26T04:55:37.850Z,998.81
2023-03-26T04:56:37.890Z,998.79
2023-03-26T04:57:37.869Z,998.77
2023-03-26T04:58:37.844Z,998.80
2023-03-26T04:59:37.808Z,998.81
2023-03-26T05:00:37.802Z,998.82
2023-03-26T05:01:38.061Z,998.77
2023-03-26T05:02:37.805Z,998.75
2023-03-26T05:03:37.758Z,998.71
2023-03-26T05:04:37.786Z,998.76
2023-03-26T05:05:37.736Z,998.65
2023-03-26T05:06:37.725Z,998.69
2023-03-26T05:07:37.742Z,998.67
2023-03-26T05:08:37.725Z,998.72
2023-03-26T05:09:37.691Z,998.67
2023-03-26T05:10:37.678Z,998.66
2023-03-26T05:11:37.668Z,998.64
2023-03-26T05:12:37.658Z,998.61
2023-03-26T05:13:37.641Z,998.63
2023-03-26T05:14:37.669Z,998.62
2023-03-26T05:15:37.624Z,998.59
2023-03-26T05:16:37.617Z,998.57
2023-03-26T05:17:37.649Z,998.57
2023-03-26T05:18:37.593Z,998.57
2023-03-26T05:19:37.597Z,998.52
2023-03-26T05:20:37.562Z,998.54
2023-03-26T05:21:37.554Z,998.56
2023-03-26T05:22:38.189Z,998.53
2023-03-26T05:23:37.567Z,998.50
2023-03-26T05:24:37.519Z,998.49
2023-03-26T05:25:37.510Z,998.47
2023-03-26T05:26:37.507Z,998.43
2023-03-26T05:27:37.504Z,998.48
2023-03-26T05:28:37.475Z,998.48
2023-03-26T05:29:37.480Z,998.47
2023-03-26T05:30:37.454Z,998.44
2023-03-26T05:31:37.441Z,998.43
2023-03-26T05:32:37.505Z,998.40
2023-03-26T05:33:37.555Z,998.38
2023-03-26T05:34:37.432Z,998.38
2023-03-26T05:35:37.464Z,998.35
2023-03-26T05:36:37.388Z,998.35
2023-03-26T05:37:37.373Z,998.33
2023-03-26T05:38:37.410Z,998.30
2023-03-26T05:39:37.377Z,998.29
2023-03-26T05:40:37.354Z,998.31
2023-03-26T05:41:37.338Z,998.30
2023-03-26T05:42:37.327Z,998.34
2023-03-26T05:43:37.318Z,998.25
2023-03-26T05:44:37.331Z,998.37
2023-03-26T05:45:37.292Z,998.29
2023-03-26T05:46:37.335Z,998.33
2023-03-26T05:47:37.301Z,998.36
2023-03-26T05:48:37.252Z,998.29
2023-03-26T05:49:37.269Z,998.24
2023-03-26T05:50:37.234Z,998.30
2023-03-26T05:51:37.224Z,998.30
2023-03-26T05:52:37.227Z,998.26
2023-03-26T05:53:37.205Z,998.24
2023-03-26T05:54:37.191Z,998.23
2023-03-26T05:55:37.198Z,998.29
2023-03-26T05:56:37.215Z,998.22
2023-03-26T05:57:37.155Z,998.25
2023-03-26T05:58:37.150Z,998.22
2023-03-26T05:59:37.158Z,998.20
2023-03-26T06:00:37.122Z,998.24
2023-03-26T06:01:37.105Z,998.21
2023-03-26T06:02:37.152Z,998.18
2023-03-26T06:03:37.210Z,998.14
2023-03-26T06:04:37.132Z,998.16
2023-03-26T06:05:37.093Z,998.12
2023-03-26T06:06:37.053Z,998.16
2023-03-26T06:07:37.043Z,998.07
2023-03-26T06:08:37.029Z,998.06
2023-03-26T06:09:37.017Z,998.04
2023-03-26T06:10:37.032Z,997.99
2023-03-26T06:11:36.993Z,998.00
2023-03-26T06:12:37.010Z,997.98
2023-03-26T06:13:36.974Z,997.96
2023-03-26T06:14:36.969Z,997.94
2023-03-26T06:15:37.012Z,997.95
2023-03-26T06:16:36.977Z,997.91
2023-03-26T06:17:36.969Z,997.96
2023-03-26T06:18:36.958Z,997.93
2023-03-26T06:19:36.925Z,997.94
2023-03-26T06:20:36.891Z,997.90
2023-03-26T06:21:36.902Z,997.90
2023-03-26T06:22:36.881Z,997.88
2023-03-26T06:23:36.870Z,997.84
2023-03-26T06:24:36.856Z,997.89
2023-03-26T06:25:36.847Z,997.87
2023-03-26T06:26:36.870Z,997.84
2023-03-26T06:27:36.815Z,997.85
2023-03-26T06:28:36.806Z,997.81
2023-03-26T06:29:36.796Z,997.78
2023-03-26T06:30:36.788Z,997.79
2023-03-26T06:31:36.822Z,997.77
2023-03-26T06:32:36.805Z,997.79
2023-03-26T06:33:36.752Z,997.78
2023-03-26T06:34:36.741Z,997.73
2023-03-26T06:35:36.778Z,997.74
2023-03-26T06:36:36.721Z,997.75
2023-03-26T06:37:36.741Z,997.76
2023-03-26T06:38:36.703Z,997.71
2023-03-26T06:39:36.733Z,997.74
2023-03-26T06:40:36.674Z,997.76
2023-03-26T06:41:36.681Z,997.70
2023-03-26T06:43:08.087Z,997.71
2023-03-26T06:43:36.648Z,997.69
2023-03-26T06:44:36.651Z,997.69
2023-03-26T06:45:36.628Z,997.65
2023-03-26T06:46:36.705Z,997.72
2023-03-26T06:47:36.616Z,997.68
2023-03-26T06:48:36.613Z,997.67
2023-03-26T06:49:36.587Z,997.64
2023-03-26T06:50:36.566Z,997.68
2023-03-26T06:51:36.553Z,997.68
2023-03-26T06:52:36.542Z,997.63
2023-03-26T06:53:36.533Z,997.68
2023-03-26T06:54:36.547Z,997.65
2023-03-26T06:55:36.531Z,997.68
2023-03-26T06:56:36.525Z,997.66
2023-03-26T06:57:36.497Z,997.62
2023-03-26T06:58:36.480Z,997.63
2023-03-26T06:59:36.494Z,997.65
2023-03-26T07:00:36.457Z,997.62
2023-03-26T07:01:36.507Z,997.61
2023-03-26T07:02:36.465Z,997.60
2023-03-26T07:03:36.497Z,997.64
2023-03-26T07:04:36.422Z,997.58
2023-03-26T07:05:36.433Z,997.59
2023-03-26T07:06:36.394Z,997.56
2023-03-26T07:07:36.382Z,997.57
2023-03-26T07:08:36.371Z,997.52
2023-03-26T07:09:36.368Z,997.53
2023-03-26T07:10:36.386Z,997.50
2023-03-26T07:11:36.340Z,997.47
2023-03-26T07:12:36.328Z,997.56
2023-03-26T07:13:36.314Z,997.53
2023-03-26T07:14:36.306Z,997.48
2023-03-26T07:15:36.289Z,997.52
2023-03-26T07:16:36.332Z,997.53
2023-03-26T07:17:36.305Z,997.47
2023-03-26T07:18:36.271Z,997.51
2023-03-26T07:19:36.259Z,997.50
2023-03-26T07:20:36.240Z,997.49
2023-03-26T07:21:36.258Z,997.50
2023-03-26T07:22:36.218Z,997.44
2023-03-26T07:23:36.219Z,997.47
2023-03-26T07:24:36.191Z,997.44
2023-03-26T07:25:36.185Z,997.44
2023-03-26T07:26:36.177Z,997.51
2023-03-26T07:27:36.204Z,997.46
2023-03-26T07:28:36.154Z,997.46
2023-03-26T07:29:36.144Z,997.47
2023-03-26T07:30:36.128Z,997.49
2023-03-26T07:31:36.164Z,997.49
2023-03-26T07:32:36.139Z,997.43
2023-03-26T07:33:36.095Z,997.44
2023-03-26T07:34:36.109Z,997.41
2023-03-26T07:35:36.085Z,997.41
2023-03-26T07:36:36.085Z,997.39
2023-03-26T07:37:36.078Z,997.39
2023-03-26T07:38:36.042Z,997.39
2023-03-26T07:39:36.031Z,997.34
2023-03-26T07:40:36.168Z,997.37
2023-03-26T07:41:36.012Z,997.27
2023-03-26T07:42:35.992Z,997.30
2023-03-26T07:43:36.009Z,997.33
2023-03-26T07:44:36.062Z,997.32
2023-03-26T07:45:35.981Z,997.32
2023-03-26T07:46:35.951Z,997.37
2023-03-26T07:47:36.046Z,997.32
2023-03-26T07:48:35.953Z,997.35
2023-03-26T07:49:35.921Z,997.36
2023-03-26T07:50:35.911Z,997.33
2023-03-26T07:51:35.897Z,997.33
2023-03-26T07:52:35.887Z,997.30
2023-03-26T07:53:35.908Z,997.27
2023-03-26T07:54:35.899Z,997.26
2023-03-26T07:55:35.862Z,997.21
2023-03-26T07:56:35.929Z,997.24
2023-03-26T07:57:35.940Z,997.20
2023-03-26T07:58:35.814Z,997.23
2023-03-26T07:59:36.070Z,997.22
2023-03-26T08:00:35.829Z,997.14
2023-03-26T08:01:36.012Z,997.15
2023-03-26T08:02:35.785Z,997.16
2023-03-26T08:03:35.886Z,997.17
2023-03-26T08:04:35.831Z,997.16
2023-03-26T08:05:35.765Z,997.17
2023-03-26T08:06:35.725Z,997.14
2023-03-26T08:07:35.729Z,997.14
2023-03-26T08:08:35.766Z,997.10
2023-03-26T08:09:35.713Z,997.09
2023-03-26T08:10:35.705Z,997.09
2023-03-26T08:11:35.690Z,997.14
2023-03-26T08:12:35.661Z,997.08
2023-03-26T08:13:35.711Z,997.13
2023-03-26T08:14:35.639Z,997.11
2023-03-26T08:15:35.641Z,997.08
2023-03-26T08:16:35.643Z,997.10
2023-03-26T08:17:35.637Z,997.06
2023-03-26T08:18:35.597Z,997.04
2023-03-26T08:19:35.586Z,997.09
2023-03-26T08:20:35.584Z,997.05
2023-03-26T08:21:35.568Z,997.02
2023-03-26T08:22:35.568Z,997.06
2023-03-26T08:23:35.544Z,997.02
2023-03-26T08:24:35.527Z,996.99
2023-03-26T08:25:37.413Z,996.95
2023-03-26T08:26:35.500Z,996.95
2023-03-26T08:27:35.522Z,996.93
2023-03-26T08:28:35.490Z,996.90
2023-03-26T08:29:35.478Z,996.88
2023-03-26T08:30:35.459Z,996.83
2023-03-26T08:31:35.534Z,996.86
2023-03-26T08:32:35.461Z,996.86
2023-03-26T08:33:37.797Z,996.86
2023-03-26T08:34:35.415Z,996.85
2023-03-26T08:35:35.558Z,996.83
2023-03-26T08:36:35.391Z,996.88
2023-03-26T08:37:35.383Z,996.89
2023-03-26T08:38:35.398Z,996.81
2023-03-26T08:39:35.366Z,996.86
2023-03-26T08:40:35.348Z,996.86
2023-03-26T08:41:35.345Z,996.84
2023-03-26T08:42:35.326Z,996.83
2023-03-26T08:43:35.312Z,996.83
2023-03-26T08:44:35.322Z,996.83
2023-03-26T08:45:35.325Z,996.82
2023-03-26T08:46:35.316Z,996.88
2023-03-26T08:47:35.302Z,996.83
2023-03-26T08:48:35.278Z,996.88
2023-03-26T08:49:35.254Z,996.84
2023-03-26T08:50:35.237Z,996.82
2023-03-26T08:51:35.231Z,996.84
2023-03-26T08:52:35.214Z,996.82
2023-03-26T08:53:35.238Z,996.82
2023-03-26T08:54:35.195Z,996.74
2023-03-26T08:55:35.183Z,996.77
2023-03-26T08:56:35.200Z,996.78
2023-03-26T08:57:35.159Z,996.75
2023-03-26T08:58:35.144Z,996.76
2023-03-26T08:59:35.178Z,996.77
2023-03-26T09:00:35.137Z,996.70
2023-03-26T09:01:35.174Z,996.74
2023-03-26T09:02:35.119Z,996.72
2023-03-26T09:03:35.150Z,996.75
2023-03-26T09:04:35.106Z,996.69
2023-03-26T09:05:35.076Z,996.71
2023-03-26T09:06:35.063Z,996.73
2023-03-26T09:07:35.061Z,996.67
2023-03-26T09:08:35.034Z,996.68
2023-03-26T09:09:35.027Z,996.68
2023-03-26T09:10:35.039Z,996.69
2023-03-26T09:11:35.013Z,996.66
2023-03-26T09:12:34.995Z,996.66
2023-03-26T09:13:34.991Z,996.67
2023-03-26T09:14:34.973Z,996.64
2023-03-26T09:15:34.956Z,996.63
2023-03-26T09:16:35.015Z,996.61
2023-03-26T09:17:34.977Z,996.59
2023-03-26T09:18:34.923Z,996.64
2023-03-26T09:19:34.915Z,996.63
2023-03-26T09:20:34.928Z,996.57
2023-03-26T09:21:34.892Z,996.62
2023-03-26T09:22:34.878Z,996.58
2023-03-26T09:23:34.874Z,996.56
2023-03-26T09:24:34.858Z,996.62
2023-03-26T09:25:34.882Z,996.62
2023-03-26T09:26:34.837Z,996.64
2023-03-26T09:27:34.829Z,996.67
2023-03-26T09:28:34.815Z,996.68
2023-03-26T09:29:34.809Z,996.62
2023-03-26T09:30:34.799Z,996.61
2023-03-26T09:31:34.824Z,996.62
2023-03-26T09:32:34.782Z,996.64
2023-03-26T09:33:34.769Z,996.62
2023-03-26T09:34:34.749Z,996.66
2023-03-26T09:35:34.796Z,996.60
2023-03-26T09:36:34.756Z,996.65
2023-03-26T09:37:34.736Z,996.64
2023-03-26T09:38:34.711Z,996.60
2023-03-26T09:39:34.701Z,996.64
2023-03-26T09:40:34.706Z,996.63
2023-03-26T09:41:34.671Z,996.61
2023-03-26T09:42:34.691Z,996.63
2023-03-26T09:43:34.660Z,996.62
2023-03-26T09:44:34.638Z,996.62
2023-03-26T09:45:34.668Z,996.58
2023-03-26T09:46:34.616Z,996.61
2023-03-26T09:47:34.643Z,996.63
2023-03-26T09:48:34.617Z,996.64
2023-03-26T09:49:34.587Z,996.65
2023-03-26T09:50:34.576Z,996.56
2023-03-26T09:51:34.573Z,996.57
2023-03-26T09:52:34.560Z,996.58
2023-03-26T09:53:34.578Z,996.55
2023-03-26T09:54:34.549Z,996.57
2023-03-26T09:55:34.546Z,996.55
2023-03-26T09:56:34.517Z,996.52
2023-03-26T09:57:34.525Z,996.49
2023-03-26T09:58:34.591Z,996.48
2023-03-26T09:59:34.468Z,996.47
2023-03-26T10:00:34.462Z,996.49
2023-03-26T10:01:34.474Z,996.48
2023-03-26T10:02:46.574Z,996.54
2023-03-26T10:03:34.438Z,996.49
2023-03-26T10:04:34.454Z,996.50
2023-03-26T10:05:34.462Z,996.52
2023-03-26T10:06:34.396Z,996.51
2023-03-26T10:07:34.387Z,996.51
2023-03-26T10:08:34.376Z,996.46
2023-03-26T10:09:34.369Z,996.51
2023-03-26T10:10:34.350Z,996.48
2023-03-26T10:11:34.360Z,996.51
2023-03-26T10:12:34.329Z,996.51
2023-03-26T10:13:34.320Z,996.47
2023-03-26T10:14:34.454Z,996.54
2023-03-26T10:15:34.318Z,996.51
2023-03-26T10:16:34.310Z,996.51
2023-03-26T10:17:34.388Z,996.54
2023-03-26T10:18:34.266Z,996.49
2023-03-26T10:19:34.252Z,996.56
2023-03-26T10:20:34.245Z,996.53
2023-03-26T10:21:34.242Z,996.54
2023-03-26T10:22:34.251Z,996.52
2023-03-26T10:23:34.216Z,996.55
2023-03-26T10:24:34.199Z,996.52
2023-03-26T10:25:34.181Z,996.48
2023-03-26T10:26:34.178Z,996.45
2023-03-26T10:27:34.184Z,996.45
2023-03-26T10:28:34.262Z,996.43
2023-03-26T10:29:34.227Z,996.46
2023-03-26T10:30:34.260Z,996.50
2023-03-26T10:31:34.196Z,996.47
2023-03-26T10:32:34.240Z,996.40
2023-03-26T10:33:34.166Z,996.45
2023-03-26T10:34:34.395Z,996.52
2023-03-26T10:35:34.177Z,996.44
2023-03-26T10:36:34.239Z,996.46
2023-03-26T10:37:34.295Z,996.46
2023-03-26T10:38:34.123Z,996.47
2023-03-26T10:39:37.037Z,996.48
2023-03-26T10:40:34.122Z,996.54
2023-03-26T10:41:33.999Z,996.45
2023-03-26T10:42:33.990Z,996.48
2023-03-26T10:43:34.055Z,996.48
2023-03-26T10:44:34.005Z,996.51
2023-03-26T10:45:33.961Z,996.46
2023-03-26T10:46:33.970Z,996.48
2023-03-26T10:47:33.948Z,996.52
2023-03-26T10:48:33.918Z,996.54
2023-03-26T10:49:33.914Z,996.50
2023-03-26T10:50:33.920Z,996.53
2023-03-26T10:51:33.937Z,996.53
2023-03-26T10:52:33.873Z,996.51
2023-03-26T10:53:33.865Z,996.50
2023-03-26T10:54:33.854Z,996.48
2023-03-26T10:55:33.855Z,996.51
2023-03-26T10:56:33.892Z,996.52
2023-03-26T10:57:33.819Z,996.45
2023-03-26T10:58:49.437Z,996.49
2023-03-26T10:59:33.803Z,996.47
2023-03-26T11:00:33.786Z,996.50
2023-03-26T11:01:33.906Z,996.43
2023-03-26T11:02:33.807Z,996.52
2023-03-26T11:03:33.752Z,996.55
2023-03-26T11:04:33.747Z,996.51
2023-03-26T11:05:33.784Z,996.48
2023-03-26T11:06:33.735Z,996.49
2023-03-26T11:07:33.738Z,996.49
2023-03-26T11:08:33.702Z,996.49
2023-03-26T11:09:33.699Z,996.50
2023-03-26T11:10:33.679Z,996.52
2023-03-26T11:11:33.670Z,996.54
2023-03-26T11:12:33.681Z,996.47
2023-03-26T11:13:33.647Z,996.43
2023-03-26T11:14:35.129Z,996.46
2023-03-26T11:15:33.668Z,996.45
2023-03-26T11:16:33.619Z,996.45
2023-03-26T11:17:41.211Z,996.43
2023-03-26T11:18:33.597Z,996.42
2023-03-26T11:19:33.577Z,996.42
2023-03-26T11:20:33.578Z,996.43
2023-03-26T11:21:33.556Z,996.38
2023-03-26T11:22:33.579Z,996.37
2023-03-26T11:23:33.544Z,996.39
2023-03-26T11:24:33.560Z,996.37
2023-03-26T11:25:33.515Z,996.37
2023-03-26T11:26:33.505Z,996.27
2023-03-26T11:27:33.498Z,996.32
2023-03-26T11:28:33.484Z,996.33
2023-03-26T11:29:33.780Z,996.36
2023-03-26T11:30:33.490Z,996.36
2023-03-26T11:31:33.476Z,996.35
2023-03-26T11:32:33.483Z,996.36
2023-03-26T11:33:33.425Z,996.39
2023-03-26T11:34:33.422Z,996.38
2023-03-26T11:35:39.277Z,996.40
2023-03-26T11:36:33.423Z,996.40
2023-03-26T11:37:33.377Z,996.32
2023-03-26T11:38:33.402Z,996.39
2023-03-26T11:39:33.360Z,996.42
2023-03-26T11:40:33.381Z,996.41
2023-03-26T11:41:33.342Z,996.42
2023-03-26T11:42:33.336Z,996.38
2023-03-26T11:43:33.322Z,996.42
2023-03-26T11:44:33.306Z,996.36
2023-03-26T11:45:33.294Z,996.40
2023-03-26T11:46:33.865Z,996.35
2023-03-26T11:47:33.326Z,996.35
2023-03-26T11:48:33.263Z,996.39
2023-03-26T11:49:33.255Z,996.36
2023-03-26T11:50:33.247Z,996.33
2023-03-26T11:51:33.292Z,996.30
2023-03-26T11:52:33.237Z,996.38
2023-03-26T11:53:33.209Z,996.29
2023-03-26T11:54:33.195Z,996.33
2023-03-26T11:55:33.176Z,996.32
2023-03-26T11:56:33.220Z,996.31
2023-03-26T11:57:33.445Z,996.35
2023-03-26T11:58:33.145Z,996.31
2023-03-26T11:59:39.153Z,996.33
2023-03-26T12:00:33.134Z,996.38
2023-03-26T12:01:33.186Z,996.38
2023-03-26T12:02:33.213Z,996.35
2023-03-26T12:03:33.087Z,996.36
2023-03-26T12:04:33.096Z,996.33
2023-03-26T12:05:33.062Z,996.33
2023-03-26T12:06:33.125Z,996.31
2023-03-26T12:07:33.063Z,996.32
2023-03-26T12:08:33.034Z,996.35
2023-03-26T12:09:33.019Z,996.32
2023-03-26T12:10:33.012Z,996.34
2023-03-26T12:11:34.669Z,996.32
2023-03-26T12:12:33.004Z,996.32
2023-03-26T12:13:32.977Z,996.32
2023-03-26T12:14:32.976Z,996.30
2023-03-26T12:15:32.960Z,996.33
2023-03-26T12:16:32.986Z,996.35
2023-03-26T12:17:32.984Z,996.36
2023-03-26T12:18:32.919Z,996.33
2023-03-26T12:19:32.942Z,996.39
2023-03-26T12:20:32.903Z,996.37
2023-03-26T12:21:32.902Z,996.38
2023-03-26T12:22:32.904Z,996.36
2023-03-26T12:23:32.859Z,996.37
2023-03-26T12:24:33.101Z,996.32